Time,TemperatureF,DewpointF,PressureIn,WindDirection,WindDirectionDegrees,WindSpeedMPH,WindSpeedGustMPH,Humidity,HourlyPrecipIn,Conditions,Clouds,dailyrainin,SolarRadiationWatts/m^2,SoftwareType,DateUTC
2013-10-08 00:02:00,40.0,38.0,-100.00,ENE,75,3.0,7.0,91,0.00,,,0.00,0.000000,,2013-10-08 08:02:00,
2013-10-08 00:12:00,40.0,38.0,-100.00,ENE,75,3.0,7.0,91,0.00,,,0.00,0.000000,,2013-10-08 08:12:00,
2013-10-08 00:21:00,40.0,38.0,-100.00,ENE,75,3.0,7.0,91,0.00,,,0.00,0.000000,,2013-10-08 08:21:00,
2013-10-08 00:52:00,39.0,38.0,-100.00,ENE,78,2.0,4.0,98,0.01,,,0.01,0.000000,,2013-10-08 08:52:00,
2013-10-08 01:02:00,39.0,38.0,-100.00,ENE,78,2.0,4.0,98,0.01,,,0.01,0.000000,,2013-10-08 09:02:00,
2013-10-08 01:12:00,39.0,38.0,-100.00,ENE,78,2.0,4.0,98,0.01,,,0.01,0.000000,,2013-10-08 09:12:00,
2013-10-08 01:21:00,39.0,38.0,-100.00,ENE,78,2.0,4.0,98,0.01,,,0.01,0.000000,,2013-10-08 09:21:00,
2013-10-08 01:53:00,39.0,39.0,-100.00,South,185,2.0,4.0,100,0.01,,,0.02,0.000000,,2013-10-08 09:53:00,
2013-10-08 02:03:00,39.0,39.0,-100.00,South,185,2.0,4.0,100,0.01,,,0.02,0.000000,,2013-10-08 10:03:00,
2013-10-08 02:12:00,39.0,39.0,-100.00,South,185,2.0,4.0,100,0.01,,,0.02,0.000000,,2013-10-08 10:12:00,
2013-10-08 02:23:00,39.0,39.0,-100.00,South,185,2.0,4.0,100,0.01,,,0.02,0.000000,,2013-10-08 10:23:00,
2013-10-08 02:53:00,45.0,45.0,-100.00,SW,233,6.0,18.0,100,0.01,,,0.03,0.000000,,2013-10-08 10:53:00,
2013-10-08 03:02:00,45.0,45.0,-100.00,SW,233,6.0,18.0,100,0.01,,,0.03,0.000000,,2013-10-08 11:02:00,
2013-10-08 03:12:00,45.0,45.0,-100.00,SW,233,6.0,18.0,100,0.01,,,0.03,0.000000,,2013-10-08 11:12:00,
2013-10-08 03:52:00,46.0,39.0,-100.00,West,263,8.0,24.0,75,0.02,,,0.05,0.000000,,2013-10-08 11:52:00,
2013-10-08 04:02:00,46.0,39.0,-100.00,West,263,8.0,24.0,75,0.02,,,0.05,0.000000,,2013-10-08 12:02:00,
2013-10-08 04:12:00,46.0,39.0,-100.00,West,263,8.0,24.0,75,0.02,,,0.05,0.000000,,2013-10-08 12:12:00,
2013-10-08 04:21:00,46.0,39.0,-100.00,West,263,8.0,24.0,75,0.02,,,0.05,0.000000,,2013-10-08 12:21:00,
2013-10-08 04:52:00,47.0,38.0,-100.00,WSW,241,13.0,26.0,71,0.00,,,0.05,0.000000,,2013-10-08 12:52:00,
2013-10-08 05:01:00,47.0,38.0,-100.00,WSW,241,13.0,26.0,71,0.00,,,0.05,0.000000,,2013-10-08 13:01:00,
2013-10-08 05:11:00,47.0,38.0,-100.00,WSW,241,13.0,26.0,71,0.00,,,0.05,0.000000,,2013-10-08 13:11:00,
2013-10-08 05:22:00,47.0,38.0,-100.00,WSW,241,13.0,26.0,71,0.00,,,0.05,0.000000,,2013-10-08 13:22:00,
2013-10-08 05:52:00,47.0,38.0,-100.00,SW,219,14.0,30.0,71,0.01,,,0.06,0.000000,,2013-10-08 13:52:00,
2013-10-08 06:02:00,47.0,38.0,-100.00,SW,219,14.0,30.0,71,0.01,,,0.06,0.000000,,2013-10-08 14:02:00,
2013-10-08 06:11:00,47.0,38.0,-100.00,SW,219,14.0,30.0,71,0.01,,,0.06,0.000000,,2013-10-08 14:11:00,
2013-10-08 06:21:00,47.0,38.0,-100.00,SW,219,14.0,30.0,71,0.01,,,0.06,0.000000,,2013-10-08 14:21:00,
2013-10-08 06:52:00,49.0,38.0,-100.00,SW,223,14.0,41.0,65,0.01,,,0.07,0.000000,,2013-10-08 14:52:00,
2013-10-08 07:01:00,49.0,38.0,-100.00,SW,223,14.0,41.0,65,0.01,,,0.07,0.000000,,2013-10-08 15:01:00,
2013-10-08 07:11:00,49.0,38.0,-100.00,SW,223,14.0,41.0,65,0.01,,,0.07,0.000000,,2013-10-08 15:11:00,
2013-10-08 07:22:00,49.0,38.0,-100.00,SW,223,14.0,41.0,65,0.01,,,0.07,0.000000,,2013-10-08 15:22:00,
2013-10-08 07:53:00,47.0,37.0,-100.00,SW,225,14.0,39.0,69,0.02,,,0.09,0.000000,,2013-10-08 15:53:00,
2013-10-08 08:03:00,47.0,37.0,-100.00,SW,225,14.0,39.0,69,0.02,,,0.09,0.000000,,2013-10-08 16:03:00,
2013-10-08 08:13:00,47.0,37.0,-100.00,SW,225,14.0,39.0,69,0.02,,,0.09,0.000000,,2013-10-08 16:13:00,
2013-10-08 08:23:00,47.0,37.0,-100.00,SW,225,14.0,39.0,69,0.02,,,0.09,0.000000,,2013-10-08 16:23:00,
2013-10-08 08:53:00,48.0,39.0,-100.00,WSW,254,13.0,35.0,70,0.02,,,0.11,0.000000,,2013-10-08 16:53:00,
2013-10-08 09:03:00,48.0,39.0,-100.00,WSW,254,13.0,35.0,70,0.02,,,0.11,0.000000,,2013-10-08 17:03:00,
2013-10-08 09:12:00,48.0,39.0,-100.00,WSW,254,13.0,35.0,70,0.02,,,0.11,0.000000,,2013-10-08 17:12:00,
2013-10-08 09:22:00,48.0,39.0,-100.00,WSW,254,13.0,35.0,70,0.02,,,0.11,0.000000,,2013-10-08 17:22:00,
2013-10-08 09:52:00,46.0,39.0,-100.00,WNW,291,9.0,37.0,75,0.01,,,0.12,0.000000,,2013-10-08 17:52:00,
2013-10-08 10:02:00,46.0,39.0,-100.00,WNW,291,9.0,37.0,75,0.01,,,0.12,0.000000,,2013-10-08 18:02:00,
2013-10-08 10:11:00,46.0,39.0,-100.00,WNW,291,9.0,37.0,75,0.01,,,0.12,0.000000,,2013-10-08 18:11:00,
2013-10-08 10:22:00,46.0,39.0,-100.00,WNW,291,9.0,37.0,75,0.01,,,0.12,0.000000,,2013-10-08 18:22:00,
2013-10-08 10:53:00,43.0,41.0,-100.00,West,281,4.0,13.0,94,0.05,,,0.17,3.000000,,2013-10-08 18:53:00,
2013-10-08 11:02:00,43.0,41.0,-100.00,West,281,4.0,13.0,94,0.05,,,0.17,3.000000,,2013-10-08 19:02:00,
2013-10-08 11:11:00,43.0,41.0,-100.00,West,281,4.0,13.0,94,0.05,,,0.17,3.000000,,2013-10-08 19:11:00,
2013-10-08 11:21:00,43.0,41.0,-100.00,West,281,4.0,13.0,94,0.05,,,0.17,3.000000,,2013-10-08 19:21:00,
2013-10-08 11:52:00,44.0,42.0,-100.00,NW,304,7.0,21.0,92,0.05,,,0.22,14.000000,,2013-10-08 19:52:00,
2013-10-08 12:02:00,44.0,42.0,-100.00,NW,304,7.0,21.0,92,0.05,,,0.22,14.000000,,2013-10-08 20:02:00,
2013-10-08 12:12:00,44.0,42.0,-100.00,NW,304,7.0,21.0,92,0.05,,,0.22,14.000000,,2013-10-08 20:12:00,
2013-10-08 12:22:00,44.0,42.0,-100.00,NW,304,7.0,21.0,92,0.05,,,0.22,14.000000,,2013-10-08 20:22:00,
2013-10-08 12:52:00,44.0,40.0,-100.00,NNE,32,5.0,22.0,87,0.02,,,0.24,15.000000,,2013-10-08 20:52:00,
2013-10-08 13:02:00,44.0,40.0,-100.00,NNE,32,5.0,22.0,87,0.02,,,0.24,15.000000,,2013-10-08 21:02:00,
2013-10-08 13:12:00,44.0,40.0,-100.00,NNE,32,5.0,22.0,87,0.02,,,0.24,15.000000,,2013-10-08 21:12:00,
2013-10-08 13:21:00,44.0,40.0,-100.00,NNE,32,5.0,22.0,87,0.02,,,0.24,15.000000,,2013-10-08 21:21:00,
2013-10-08 13:54:00,45.0,44.0,-100.00,West,270,6.0,20.0,97,0.02,,,0.26,30.000000,,2013-10-08 21:54:00,
2013-10-08 14:03:00,45.0,44.0,-100.00,West,270,6.0,20.0,97,0.02,,,0.26,30.000000,,2013-10-08 22:03:00,
2013-10-08 14:13:00,45.0,44.0,-100.00,West,270,6.0,20.0,97,0.02,,,0.26,30.000000,,2013-10-08 22:13:00,
2013-10-08 14:24:00,45.0,44.0,-100.00,West,270,6.0,20.0,97,0.02,,,0.26,30.000000,,2013-10-08 22:24:00,
2013-10-08 14:57:00,48.0,41.0,-100.00,WNW,300,8.0,22.0,77,0.02,,,0.28,70.000000,,2013-10-08 22:57:00,
2013-10-08 15:03:00,48.0,41.0,-100.00,WNW,300,8.0,22.0,77,0.02,,,0.28,70.000000,,2013-10-08 23:03:00,
2013-10-08 15:12:00,48.0,41.0,-100.00,WNW,300,8.0,22.0,77,0.02,,,0.28,70.000000,,2013-10-08 23:12:00,
2013-10-08 15:22:00,48.0,41.0,-100.00,WNW,300,8.0,22.0,77,0.02,,,0.28,70.000000,,2013-10-08 23:22:00,
2013-10-08 15:52:00,50.0,38.0,-100.00,NE,46,6.0,20.0,63,0.00,,,0.28,116.000000,,2013-10-08 23:52:00,
2013-10-08 16:02:00,50.0,38.0,-100.00,NE,46,6.0,20.0,63,0.00,,,0.28,116.000000,,2013-10-09 00:02:00,
2013-10-08 16:12:00,50.0,38.0,-100.00,NE,46,6.0,20.0,63,0.00,,,0.28,116.000000,,2013-10-09 00:12:00,
2013-10-08 16:22:00,50.0,38.0,-100.00,NE,46,6.0,20.0,63,0.00,,,0.28,116.000000,,2013-10-09 00:22:00,
2013-10-08 16:52:00,47.0,39.0,-100.00,NNE,30,4.0,12.0,73,0.00,,,0.28,45.000000,,2013-10-09 00:52:00,
2013-10-08 17:01:00,47.0,39.0,-100.00,NNE,30,4.0,12.0,73,0.00,,,0.28,45.000000,,2013-10-09 01:01:00,
2013-10-08 17:12:00,47.0,39.0,-100.00,NNE,30,4.0,12.0,73,0.00,,,0.28,45.000000,,2013-10-09 01:12:00,
2013-10-08 17:21:00,47.0,39.0,-100.00,NNE,30,4.0,12.0,73,0.00,,,0.28,45.000000,,2013-10-09 01:21:00,
2013-10-08 17:52:00,43.0,42.0,-100.00,ESE,113,2.0,7.0,95,0.05,,,0.33,16.000000,,2013-10-09 01:52:00,
2013-10-08 18:02:00,43.0,42.0,-100.00,ESE,113,2.0,7.0,95,0.05,,,0.33,16.000000,,2013-10-09 02:02:00,
2013-10-08 18:12:00,43.0,42.0,-100.00,ESE,113,2.0,7.0,95,0.05,,,0.33,16.000000,,2013-10-09 02:12:00,
2013-10-08 18:22:00,43.0,42.0,-100.00,ESE,113,2.0,7.0,95,0.05,,,0.33,16.000000,,2013-10-09 02:22:00,
2013-10-08 18:52:00,42.0,42.0,-100.00,WSW,255,2.0,4.0,100,0.06,,,0.39,11.000000,,2013-10-09 02:52:00,
2013-10-08 19:02:00,42.0,42.0,-100.00,WSW,255,2.0,4.0,100,0.06,,,0.39,11.000000,,2013-10-09 03:02:00,
2013-10-08 19:11:00,42.0,42.0,-100.00,WSW,255,2.0,4.0,100,0.06,,,0.39,11.000000,,2013-10-09 03:11:00,
2013-10-08 19:23:00,42.0,42.0,-100.00,WSW,255,2.0,4.0,100,0.06,,,0.39,11.000000,,2013-10-09 03:23:00,
2013-10-08 19:54:00,41.0,41.0,-100.00,West,262,4.0,14.0,100,0.05,,,0.44,2.000000,,2013-10-09 03:54:00,
2013-10-08 20:05:00,41.0,41.0,-100.00,West,262,4.0,14.0,100,0.05,,,0.44,2.000000,,2013-10-09 04:05:00,
2013-10-08 20:14:00,41.0,41.0,-100.00,West,262,4.0,14.0,100,0.05,,,0.44,2.000000,,2013-10-09 04:14:00,
2013-10-08 20:23:00,41.0,41.0,-100.00,West,262,4.0,14.0,100,0.05,,,0.44,2.000000,,2013-10-09 04:23:00,
2013-10-08 20:54:00,41.0,40.0,-100.00,NW,310,4.0,10.0,98,0.13,,,0.57,0.000000,,2013-10-09 04:54:00,
2013-10-08 21:04:00,41.0,40.0,-100.00,NW,310,4.0,10.0,98,0.13,,,0.57,0.000000,,2013-10-09 05:04:00,
2013-10-08 21:13:00,41.0,40.0,-100.00,NW,310,4.0,10.0,98,0.13,,,0.57,0.000000,,2013-10-09 05:13:00,
2013-10-08 21:22:00,41.0,40.0,-100.00,NW,310,4.0,10.0,98,0.13,,,0.57,0.000000,,2013-10-09 05:22:00,
2013-10-08 21:52:00,40.0,40.0,-100.00,West,269,4.0,11.0,99,0.07,,,0.64,0.000000,,2013-10-09 05:52:00,
2013-10-08 22:02:00,40.0,40.0,-100.00,West,269,4.0,11.0,99,0.07,,,0.64,0.000000,,2013-10-09 06:02:00,
2013-10-08 22:12:00,40.0,40.0,-100.00,West,269,4.0,11.0,99,0.07,,,0.64,0.000000,,2013-10-09 06:12:00,
2013-10-08 22:22:00,40.0,40.0,-100.00,West,269,4.0,11.0,99,0.07,,,0.64,0.000000,,2013-10-09 06:22:00,
2013-10-08 22:52:00,41.0,39.0,-100.00,WNW,301,4.0,12.0,94,0.00,,,0.64,0.000000,,2013-10-09 06:52:00,
2013-10-08 23:01:00,41.0,39.0,-100.00,WNW,301,4.0,12.0,94,0.00,,,0.64,0.000000,,2013-10-09 07:01:00,
2013-10-08 23:12:00,41.0,39.0,-100.00,WNW,301,4.0,12.0,94,0.00,,,0.64,0.000000,,2013-10-09 07:12:00,
2013-10-08 23:21:00,41.0,39.0,-100.00,WNW,301,4.0,12.0,94,0.00,,,0.64,0.000000,,2013-10-09 07:21:00,
2013-10-08 23:52:00,41.0,39.0,-100.00,WNW,301,6.0,12.0,92,0.00,,,0.64,0.000000,,2013-10-09 07:52:00,